Time;durP1;ratioP1;P1;durP2;ratioP2;P2;SDS_P1;SDS_P2;PMS_P1;PMS_P2;Temp;Humidity;BMP_temperature;BMP_pressure;BME280_temperature;BME280_humidity;BME280_pressure;Samples;Min_cycle;Max_cycle;Signal;HPM_P1;HPM_P2
2022/05/05 00:00:53;;;;;;;17.90;12.25;;;13.50;99.90;;;;;;5094261;28;20059;-51
2022/05/05 00:03:19;;;;;;;16.48;12.15;;;13.30;99.90;;;;;;5095479;28;20438;-51
2022/05/05 00:05:45;;;;;;;21.70;12.23;;;13.00;99.90;;;;;;5095721;28;20058;-50
2022/05/05 00:08:11;;;;;;;16.25;12.23;;;13.00;99.90;;;;;;5093900;28;20024;-50
2022/05/05 00:16:09;;;;;;;19.60;13.43;;;13.10;99.90;;;;;;5093815;28;20034;-51
2022/05/05 00:18:35;;;;;;;21.70;13.07;;;13.00;99.90;;;;;;5095111;28;20429;-51
2022/05/05 00:21:01;;;;;;;20.17;11.80;;;12.80;99.90;;;;;;5095070;28;20075;-51
2022/05/05 00:23:27;;;;;;;20.77;13.07;;;12.80;99.90;;;;;;5094196;28;20442;-50
2022/05/05 00:25:52;;;;;;;19.92;13.27;;;12.80;99.90;;;;;;5094947;28;20043;-50
2022/05/05 00:28:18;;;;;;;16.35;12.43;;;12.80;99.90;;;;;;5094109;28;20024;-50
2022/05/05 00:30:44;;;;;;;20.00;13.25;;;12.70;99.90;;;;;;5094720;28;20054;-50
2022/05/05 00:33:09;;;;;;;20.55;12.43;;;12.70;99.90;;;;;;5094963;28;20035;-50
2022/05/05 00:35:35;;;;;;;23.00;13.57;;;12.60;99.90;;;;;;5093518;28;20047;-50
2022/05/05 00:38:01;;;;;;;21.75;13.30;;;12.70;99.90;;;;;;5093314;28;20501;-51
2022/05/05 00:40:26;;;;;;;18.65;12.85;;;12.70;99.90;;;;;;5095361;28;20031;-50
2022/05/05 00:42:52;;;;;;;22.15;15.13;;;12.60;99.90;;;;;;5094331;28;20024;-50
2022/05/05 00:45:21;;;;;;;26.13;15.23;;;12.70;99.90;;;;;;5091903;28;20031;-50
2022/05/05 00:47:46;;;;;;;22.27;14.57;;;12.70;99.90;;;;;;5093662;28;20031;-51
2022/05/05 00:50:12;;;;;;;20.65;14.52;;;12.80;99.90;;;;;;5093906;28;20055;-51
2022/05/05 00:52:37;;;;;;;25.77;15.52;;;12.60;99.90;;;;;;5094960;28;20028;-51
2022/05/05 00:55:04;;;;;;;22.50;15.27;;;12.40;99.90;;;;;;5095132;28;20046;-51
2022/05/05 00:57:30;;;;;;;26.58;16.10;;;12.40;99.90;;;;;;5095098;28;20032;-49
2022/05/05 00:59:57;;;;;;;25.65;16.15;;;12.30;99.90;;;;;;5094551;28;20380;-51
2022/05/05 01:02:22;;;;;;;23.38;17.05;;;12.30;99.90;;;;;;5094033;28;20103;-50
2022/05/05 01:04:48;;;;;;;22.83;16.90;;;12.20;99.90;;;;;;5093111;28;20136;-52
2022/05/05 01:07:15;;;;;;;22.50;16.92;;;12.30;99.90;;;;;;5093237;28;20028;-51
2022/05/05 01:09:41;;;;;;;27.90;17.38;;;12.30;99.90;;;;;;5094211;28;20123;-51
2022/05/05 01:12:08;;;;;;;27.23;18.63;;;12.20;99.90;;;;;;5094509;28;20070;-50
2022/05/05 01:14:37;;;;;;;29.17;19.45;;;12.20;99.90;;;;;;5094109;28;20016;-50
2022/05/05 01:17:03;;;;;;;30.10;17.70;;;12.10;99.90;;;;;;5094015;28;20028;-50
2022/05/05 01:19:29;;;;;;;31.02;20.42;;;12.10;99.90;;;;;;5094119;28;20392;-51
2022/05/05 01:21:55;;;;;;;30.23;19.98;;;12.20;99.90;;;;;;5094093;28;20020;-50
2022/05/05 01:29:54;;;;;;;35.67;21.55;;;12.60;99.90;;;;;;5092945;28;20070;-50
2022/05/05 01:32:20;;;;;;;33.03;22.52;;;12.50;99.90;;;;;;5092674;28;20051;-51
2022/05/05 01:34:45;;;;;;;30.02;22.05;;;12.60;99.90;;;;;;5093349;28;20497;-51
2022/05/05 01:37:11;;;;;;;34.55;21.38;;;12.40;99.90;;;;;;5093624;28;20064;-51
2022/05/05 01:39:36;;;;;;;37.42;23.60;;;12.30;99.90;;;;;;5093183;28;20101;-51
2022/05/05 01:42:02;;;;;;;34.92;22.70;;;12.40;99.90;;;;;;5092911;28;20041;-51
2022/05/05 01:44:28;;;;;;;36.65;23.30;;;12.50;99.90;;;;;;5092633;28;20024;-51
2022/05/05 01:46:53;;;;;;;38.85;25.00;;;12.60;99.90;;;;;;5092639;28;20146;-50
2022/05/05 01:49:19;;;;;;;37.63;25.13;;;12.60;99.90;;;;;;5092582;28;20028;-51
2022/05/05 01:51:45;;;;;;;40.92;24.27;;;12.60;99.90;;;;;;5091162;28;20020;-50
2022/05/05 01:54:11;;;;;;;36.05;23.98;;;12.50;99.90;;;;;;5092945;28;20089;-50
2022/05/05 01:56:37;;;;;;;35.25;24.08;;;12.30;99.90;;;;;;5093208;28;20050;-50
2022/05/05 01:59:03;;;;;;;35.10;24.73;;;12.30;99.90;;;;;;5093276;28;20020;-51
2022/05/05 02:01:28;;;;;;;39.22;25.05;;;12.20;99.90;;;;;;5093150;28;20481;-50
2022/05/05 02:03:54;;;;;;;38.95;25.60;;;12.20;99.90;;;;;;5093139;28;20024;-50
2022/05/05 02:06:20;;;;;;;34.72;23.55;;;12.10;99.90;;;;;;5091802;28;20031;-51
2022/05/05 02:08:46;;;;;;;41.60;25.00;;;12.20;99.90;;;;;;5090864;28;20030;-52
2022/05/05 02:11:11;;;;;;;41.30;25.30;;;12.30;99.90;;;;;;5092138;28;20031;-50
2022/05/05 02:13:37;;;;;;;36.38;26.10;;;12.40;99.90;;;;;;5091590;28;20103;-51
2022/05/05 02:16:03;;;;;;;41.00;25.38;;;12.50;99.90;;;;;;5090736;28;20016;-51
2022/05/05 02:18:29;;;;;;;40.28;26.10;;;12.50;99.90;;;;;;5093385;28;20020;-51
2022/05/05 02:20:55;;;;;;;37.22;26.35;;;12.40;99.90;;;;;;5093673;28;20012;-51
2022/05/05 02:23:20;;;;;;;39.60;26.50;;;12.30;99.90;;;;;;5092862;28;20369;-51
2022/05/05 02:25:46;;;;;;;41.83;26.67;;;12.40;99.90;;;;;;5092207;28;20024;-51
2022/05/05 02:28:12;;;;;;;39.00;26.13;;;12.30;99.90;;;;;;5092672;28;20036;-51
2022/05/05 02:30:37;;;;;;;40.13;27.50;;;12.40;99.90;;;;;;5090599;28;20032;-51
2022/05/05 02:33:03;;;;;;;43.22;27.60;;;12.40;99.90;;;;;;5091533;28;20016;-51
2022/05/05 02:35:29;;;;;;;43.15;28.52;;;12.50;99.90;;;;;;5091462;28;20059;-51
2022/05/05 02:40:39;;;;;;;38.97;28.15;;;12.60;99.90;;;;;;5091596;28;20086;-50
2022/05/05 02:43:06;;;;;;;41.05;27.00;;;12.60;99.90;;;;;;5091868;28;20043;-50
2022/05/05 02:45:32;;;;;;;43.40;29.08;;;12.60;99.90;;;;;;5092440;28;20032;-49
2022/05/05 02:47:58;;;;;;;42.13;28.48;;;12.60;99.90;;;;;;5091662;28;20024;-51
2022/05/05 02:50:24;;;;;;;42.25;26.42;;;12.70;99.90;;;;;;5091695;28;20103;-50
2022/05/05 02:52:50;;;;;;;40.50;29.35;;;12.60;99.90;;;;;;5091873;28;20107;-50
2022/05/05 02:55:16;;;;;;;43.45;29.33;;;12.60;99.90;;;;;;5090099;28;20024;-51
2022/05/05 02:57:41;;;;;;;43.08;29.15;;;12.50;99.90;;;;;;5091183;28;20024;-50
2022/05/05 03:00:11;;;;;;;48.38;28.95;;;12.50;99.90;;;;;;5090575;28;20080;-52
2022/05/05 03:02:41;;;;;;;49.75;31.02;;;12.60;99.90;;;;;;5090936;28;20027;-51
2022/05/05 03:05:11;;;;;;;44.03;29.90;;;12.70;99.90;;;;;;5090557;28;20048;-51
2022/05/05 03:07:37;;;;;;;45.97;31.25;;;12.80;99.90;;;;;;5090427;28;20059;-50
2022/05/05 03:10:04;;;;;;;47.78;30.90;;;12.70;99.90;;;;;;5090660;28;20085;-50
2022/05/05 03:12:30;;;;;;;42.70;28.42;;;12.80;99.90;;;;;;5090589;28;20025;-52
2022/05/05 03:14:55;;;;;;;45.40;28.95;;;12.60;99.90;;;;;;5091128;28;20219;-51
2022/05/05 03:17:21;;;;;;;42.70;29.88;;;12.50;99.90;;;;;;5091107;28;20024;-51
2022/05/05 03:19:47;;;;;;;43.53;28.77;;;12.40;99.90;;;;;;5092123;28;20388;-51
2022/05/05 03:22:12;;;;;;;41.55;29.08;;;12.40;99.90;;;;;;5092592;28;20020;-51
2022/05/05 03:24:38;;;;;;;44.33;28.45;;;12.40;99.90;;;;;;5092378;28;20017;-51
2022/05/05 03:27:04;;;;;;;43.72;29.02;;;12.30;99.90;;;;;;5093904;28;20027;-51
2022/05/05 03:29:30;;;;;;;42.00;29.30;;;12.30;99.90;;;;;;5096114;28;20020;-51
2022/05/05 03:31:56;;;;;;;42.30;27.73;;;12.30;99.90;;;;;;5096295;28;20504;-51
2022/05/05 03:34:21;;;;;;;45.92;28.60;;;12.30;99.90;;;;;;5096469;28;20068;-51
2022/05/05 03:36:47;;;;;;;43.85;28.15;;;12.20;99.90;;;;;;5096391;28;20024;-51
2022/05/05 03:39:13;;;;;;;40.92;28.58;;;12.10;99.90;;;;;;5095967;28;20024;-49
2022/05/05 03:41:38;;;;;;;44.08;29.35;;;12.10;99.90;;;;;;5096411;28;20500;-50
2022/05/05 03:44:05;;;;;;;45.35;29.30;;;12.10;99.90;;;;;;5096067;28;20032;-50
2022/05/05 03:46:31;;;;;;;41.60;27.70;;;12.10;99.90;;;;;;5095551;28;20040;-50
2022/05/05 03:48:57;;;;;;;43.53;28.88;;;12.10;99.90;;;;;;5096209;28;20093;-50
2022/05/05 03:51:22;;;;;;;47.75;30.08;;;12.10;99.90;;;;;;5094239;28;20473;-54
2022/05/05 03:53:48;;;;;;;43.88;30.30;;;12.00;99.90;;;;;;5094946;28;20038;-50
2022/05/05 03:56:14;;;;;;;46.08;31.00;;;12.00;99.90;;;;;;5094958;28;20024;-50
2022/05/05 03:58:42;;;;;;;44.08;29.80;;;12.10;99.90;;;;;;5095621;28;20103;-50
2022/05/05 04:01:07;;;;;;;49.08;31.00;;;12.10;99.90;;;;;;5095003;28;20028;-50
2022/05/05 04:03:34;;;;;;;49.40;30.98;;;12.00;99.90;;;;;;5095812;28;20388;-50
2022/05/05 04:06:09;;;;;;;44.13;30.52;;;12.00;99.90;;;;;;5096049;28;20081;-50
2022/05/05 04:08:37;;;;;;;44.88;29.38;;;12.00;99.90;;;;;;5095448;28;20024;-50
2022/05/05 04:11:04;;;;;;;48.70;32.33;;;12.00;99.90;;;;;;5095195;28;20051;-51
2022/05/05 04:13:29;;;;;;;48.20;31.52;;;12.00;99.90;;;;;;5094384;28;20056;-51
2022/05/05 04:15:55;;;;;;;49.42;31.55;;;12.00;99.90;;;;;;5094958;28;20421;-50
2022/05/05 04:18:20;;;;;;;49.92;30.80;;;11.80;99.90;;;;;;5094245;28;20392;-51
2022/05/05 04:20:47;;;;;;;44.05;29.58;;;11.90;99.90;;;;;;5093773;28;20021;-51
2022/05/05 04:23:15;;;;;;;49.35;31.52;;;11.90;99.90;;;;;;5094821;28;20434;-51
2022/05/05 04:25:42;;;;;;;50.80;31.52;;;11.90;99.90;;;;;;5092802;28;20108;-52
2022/05/05 04:28:09;;;;;;;44.33;30.10;;;11.90;99.90;;;;;;5093313;28;20492;-50
2022/05/05 04:30:35;;;;;;;51.92;32.05;;;11.90;99.90;;;;;;5095003;28;20028;-51
2022/05/05 04:33:01;;;;;;;50.13;30.95;;;12.00;99.90;;;;;;5094091;28;20027;-51
2022/05/05 04:35:27;;;;;;;48.65;31.80;;;12.00;99.90;;;;;;5094015;28;20067;-51
2022/05/05 04:37:53;;;;;;;46.63;31.70;;;12.10;99.90;;;;;;5093426;28;20051;-51
2022/05/05 04:40:18;;;;;;;47.63;31.88;;;12.10;99.90;;;;;;5093308;28;20039;-51
2022/05/05 04:42:47;;;;;;;50.88;31.85;;;12.20;99.90;;;;;;5093622;28;20028;-51
2022/05/05 04:45:19;;;;;;;49.90;34.17;;;12.20;99.90;;;;;;5093172;28;20216;-51
2022/05/05 04:47:44;;;;;;;52.25;34.47;;;12.30;99.90;;;;;;5093288;28;20540;-51
2022/05/05 04:50:10;;;;;;;52.35;34.15;;;12.40;99.90;;;;;;5093178;28;20031;-51
2022/05/05 04:52:35;;;;;;;45.72;32.25;;;12.40;99.90;;;;;;5093293;28;20028;-51
2022/05/05 04:55:01;;;;;;;53.75;33.05;;;12.40;99.90;;;;;;5093068;28;20027;-51
2022/05/05 04:57:27;;;;;;;50.38;33.90;;;12.60;99.90;;;;;;5092927;28;20419;-51
2022/05/05 04:59:53;;;;;;;48.72;33.28;;;12.80;99.90;;;;;;5092954;28;20020;-51
2022/05/05 05:02:19;;;;;;;51.15;34.00;;;13.00;99.90;;;;;;5093195;28;20568;-51
2022/05/05 05:04:45;;;;;;;53.03;34.15;;;12.80;99.90;;;;;;5092632;28;20106;-51
2022/05/05 05:07:11;;;;;;;47.20;30.90;;;12.70;99.90;;;;;;5093153;28;20099;-51
2022/05/05 05:09:37;;;;;;;48.58;32.60;;;12.90;99.90;;;;;;5092872;28;20115;-51
2022/05/05 05:12:03;;;;;;;52.80;34.00;;;13.00;99.90;;;;;;5092322;28;20024;-51
2022/05/05 05:14:28;;;;;;;49.67;31.92;;;13.00;99.90;;;;;;5091815;28;20056;-51
2022/05/05 05:16:54;;;;;;;48.83;31.67;;;13.00;99.90;;;;;;5092234;28;20052;-51
2022/05/05 05:19:20;;;;;;;46.42;32.00;;;12.90;99.90;;;;;;5090748;28;20473;-51
2022/05/05 05:21:46;;;;;;;49.10;32.85;;;12.90;99.90;;;;;;5091054;28;20035;-51
2022/05/05 05:24:12;;;;;;;51.30;33.03;;;12.90;99.90;;;;;;5091745;28;20081;-51
2022/05/05 05:26:38;;;;;;;49.40;32.33;;;13.00;99.90;;;;;;5092416;28;20426;-51
2022/05/05 05:29:03;;;;;;;48.03;31.88;;;13.10;99.90;;;;;;5091950;28;20139;-52
2022/05/05 05:31:29;;;;;;;49.20;31.48;;;13.10;99.90;;;;;;5091949;28;20020;-51
2022/05/05 05:33:55;;;;;;;50.80;32.28;;;13.10;99.90;;;;;;5091264;28;20052;-51
2022/05/05 05:36:21;;;;;;;49.10;31.58;;;13.20;99.90;;;;;;5091783;28;20101;-51
2022/05/05 05:38:46;;;;;;;46.20;32.42;;;13.30;99.90;;;;;;5091534;28;20035;-51
2022/05/05 05:41:12;;;;;;;51.10;31.85;;;13.40;99.90;;;;;;5088778;28;20053;-51
2022/05/05 05:43:39;;;;;;;50.17;31.52;;;13.40;99.90;;;;;;5074259;28;20020;-50
2022/05/05 05:46:04;;;;;;;55.78;33.40;;;13.50;99.90;;;;;;5071653;28;20091;-50
2022/05/05 05:48:30;;;;;;;47.10;32.50;;;13.50;99.90;;;;;;5069851;28;20040;-50
2022/05/05 05:50:55;;;;;;;51.22;32.70;;;13.60;99.90;;;;;;5071030;28;20029;-50
2022/05/05 05:53:21;;;;;;;46.20;31.27;;;13.90;99.90;;;;;;5071056;28;20112;-50
2022/05/05 05:55:47;;;;;;;52.00;32.80;;;13.70;99.90;;;;;;5071194;28;20032;-50
2022/05/05 05:58:12;;;;;;;45.25;32.03;;;13.60;99.90;;;;;;5068562;28;20021;-50
2022/05/05 06:00:38;;;;;;;47.83;31.65;;;13.70;99.90;;;;;;5054371;28;20063;-50
2022/05/05 06:05:49;;;;;;;50.67;33.28;;;14.10;99.90;;;;;;5068122;28;20595;-50
2022/05/05 06:08:15;;;;;;;50.33;32.92;;;14.20;99.90;;;;;;5062624;28;20056;-50
2022/05/05 06:10:41;;;;;;;48.42;32.47;;;14.40;99.90;;;;;;5051890;28;20355;-50
2022/05/05 06:13:07;;;;;;;51.30;33.50;;;14.40;99.90;;;;;;5057634;28;20118;-50
2022/05/05 06:15:33;;;;;;;49.58;33.17;;;14.20;99.90;;;;;;5059854;28;20027;-50
2022/05/05 06:17:58;;;;;;;52.70;34.63;;;14.20;99.90;;;;;;5053838;28;20039;-50
2022/05/05 06:20:24;;;;;;;50.10;33.55;;;14.30;99.90;;;;;;5061340;28;20668;-51
2022/05/05 06:22:53;;;;;;;53.45;33.53;;;14.50;99.90;;;;;;5056241;28;20032;-51
2022/05/05 06:25:20;;;;;;;53.30;33.55;;;14.60;99.90;;;;;;5050361;28;20036;-51
2022/05/05 06:27:46;;;;;;;56.50;34.28;;;14.40;99.90;;;;;;5058108;28;20119;-51
2022/05/05 06:30:13;;;;;;;50.80;32.83;;;14.20;99.90;;;;;;5057906;28;20501;-51
2022/05/05 06:32:40;;;;;;;49.42;32.97;;;14.20;99.90;;;;;;5051778;28;20024;-51
2022/05/05 06:35:06;;;;;;;50.85;32.90;;;14.40;99.90;;;;;;5047229;28;20049;-51
2022/05/05 06:37:32;;;;;;;51.30;33.88;;;14.50;99.90;;;;;;5058238;28;20082;-50
2022/05/05 06:39:58;;;;;;;54.55;34.35;;;14.20;99.90;;;;;;5050417;28;20063;-51
2022/05/05 06:42:24;;;;;;;53.55;33.95;;;14.20;99.90;;;;;;5056903;28;20037;-50
2022/05/05 06:44:49;;;;;;;50.53;32.97;;;14.40;99.90;;;;;;5062590;28;20034;-51
2022/05/05 06:47:15;;;;;;;53.58;34.28;;;14.50;99.90;;;;;;5060184;28;20021;-51
2022/05/05 06:49:40;;;;;;;55.08;35.10;;;14.40;99.90;;;;;;5060060;28;20021;-51
2022/05/05 06:52:07;;;;;;;53.13;34.42;;;14.00;99.90;;;;;;5069501;28;20028;-50
2022/05/05 06:54:33;;;;;;;50.53;33.08;;;14.00;99.90;;;;;;5047863;28;20598;-51
2022/05/05 06:56:59;;;;;;;54.08;32.95;;;14.10;99.90;;;;;;5056645;28;20111;-51
2022/05/05 06:59:24;;;;;;;50.78;34.88;;;14.20;99.90;;;;;;5054530;28;20426;-51
2022/05/05 07:01:53;;;;;;;51.92;33.97;;;14.40;99.90;;;;;;5055253;28;20077;-51
2022/05/05 07:07:11;;;;;;;52.40;34.05;;;14.60;99.90;;;;;;5058870;28;20089;-51
2022/05/05 07:12:22;;;;;;;49.20;31.75;;;14.90;99.90;;;;;;5054009;28;20040;-51
2022/05/05 07:14:47;;;;;;;47.78;31.48;;;14.90;99.90;;;;;;5053531;28;20289;-50
2022/05/05 07:17:13;;;;;;;48.42;32.95;;;14.70;99.90;;;;;;5052447;28;20079;-51
2022/05/05 07:19:39;;;;;;;51.40;32.35;;;14.70;99.90;;;;;;5057968;28;20032;-51
2022/05/05 07:22:06;;;;;;;45.05;31.40;;;14.90;99.90;;;;;;5055992;28;20060;-51
2022/05/05 07:24:31;;;;;;;46.33;31.15;;;15.00;99.90;;;;;;5051657;28;20034;-51
2022/05/05 07:26:58;;;;;;;44.15;31.25;;;15.10;99.90;;;;;;5055353;28;20028;-51
2022/05/05 07:29:24;;;;;;;46.00;30.65;;;15.40;99.90;;;;;;5056411;28;20024;-51
2022/05/05 07:31:49;;;;;;;49.17;31.42;;;15.60;99.90;;;;;;5060138;28;20812;-53
2022/05/05 07:34:15;;;;;;;42.38;30.02;;;15.90;99.90;;;;;;5056143;28;20056;-54
2022/05/05 07:36:42;;;;;;;45.95;29.85;;;16.10;99.90;;;;;;5057483;28;20086;-54
2022/05/05 07:39:08;;;;;;;44.90;29.95;;;16.30;99.90;;;;;;5061538;28;20041;-54
2022/05/05 07:41:34;;;;;;;48.78;30.33;;;16.20;99.90;;;;;;5055343;28;20078;-54
2022/05/05 07:44:01;;;;;;;41.97;28.58;;;16.30;99.90;;;;;;5057733;28;20411;-55
2022/05/05 07:46:27;;;;;;;41.65;29.52;;;16.20;99.90;;;;;;5056401;28;20163;-54
2022/05/05 07:48:54;;;;;;;41.00;27.42;;;16.10;99.90;;;;;;5055790;28;20021;-54
2022/05/05 07:51:20;;;;;;;40.75;28.35;;;16.10;99.90;;;;;;5058103;28;20064;-54
2022/05/05 07:54:34;;;;;;;38.58;27.73;;;16.00;99.90;;;;;;5060995;28;21593;-54
2022/05/05 07:56:31;;;;;;;38.92;29.23;;;15.90;99.90;;;;;;5057815;28;20028;-54
2022/05/05 07:58:57;;;;;;;47.03;28.65;;;16.20;99.90;;;;;;5053953;28;20504;-54
2022/05/05 08:01:23;;;;;;;48.88;28.95;;;16.50;99.90;;;;;;5054698;28;20029;-54
2022/05/05 08:03:48;;;;;;;40.90;28.63;;;16.50;99.90;;;;;;5059002;28;20029;-54
2022/05/05 08:06:14;;;;;;;37.03;27.70;;;16.40;99.90;;;;;;5057959;28;20036;-54
2022/05/05 08:08:39;;;;;;;36.83;27.77;;;16.50;99.90;;;;;;5055508;28;20137;-55
2022/05/05 08:11:05;;;;;;;37.47;27.60;;;16.40;99.90;;;;;;5055515;28;20043;-54
2022/05/05 08:13:34;;;;;;;50.55;27.33;;;16.60;99.90;;;;;;5047433;28;20052;-55
2022/05/05 08:16:00;;;;;;;36.30;26.65;;;17.00;99.90;;;;;;5056886;28;20394;-55
2022/05/05 08:18:26;;;;;;;38.08;27.40;;;17.30;99.90;;;;;;5062122;28;20086;-55
2022/05/05 08:20:51;;;;;;;42.40;27.85;;;17.80;99.90;;;;;;5064639;28;20028;-55
2022/05/05 08:23:18;;;;;;;46.72;26.30;;;17.90;99.90;;;;;;5064021;28;20032;-55
2022/05/05 08:28:28;;;;;;;32.65;24.95;;;18.40;99.90;;;;;;5059587;28;20078;-55
2022/05/05 08:30:54;;;;;;;33.80;25.42;;;18.60;99.90;;;;;;5054032;28;20305;-55
2022/05/05 08:33:19;;;;;;;32.20;24.70;;;18.70;99.90;;;;;;5062887;28;20055;-55
2022/05/05 08:35:45;;;;;;;28.05;22.35;;;18.10;99.90;;;;;;5059692;28;20033;-55
2022/05/05 08:38:11;;;;;;;33.63;25.02;;;17.90;99.90;;;;;;5063799;28;20025;-55
2022/05/05 08:40:40;;;;;;;27.80;22.73;;;17.80;99.90;;;;;;5060424;28;20059;-55
2022/05/05 08:43:05;;;;;;;27.33;22.17;;;17.90;99.90;;;;;;5064881;28;20040;-55
2022/05/05 08:45:32;;;;;;;28.35;22.98;;;18.00;99.90;;;;;;5057622;28;20021;-55
2022/05/05 08:47:59;;;;;;;27.77;22.42;;;18.30;99.90;;;;;;5061555;28;20035;-55
2022/05/05 08:50:25;;;;;;;28.05;22.67;;;19.40;99.90;;;;;;5055503;28;20025;-56
2022/05/05 08:52:51;;;;;;;29.58;22.42;;;21.50;99.90;;;;;;5056788;28;20035;-55
2022/05/05 08:55:20;;;;;;;27.42;22.42;;;22.80;99.90;;;;;;5056549;28;20055;-55
2022/05/05 08:57:46;;;;;;;28.27;21.77;;;22.60;99.50;;;;;;5057704;28;20090;-56
2022/05/05 09:00:14;;;;;;;24.55;20.92;;;21.30;99.90;;;;;;5066735;28;20025;-56
2022/05/05 09:02:41;;;;;;;23.92;20.35;;;22.00;99.90;;;;;;5059612;28;20021;-56
2022/05/05 09:05:08;;;;;;;24.80;20.75;;;22.10;99.90;;;;;;5063022;28;20505;-55
2022/05/05 09:07:47;;;;;;;23.77;18.83;;;21.80;99.90;;;;;;5063887;28;20032;-55
2022/05/05 09:10:15;;;;;;;22.77;20.02;;;22.50;98.80;;;;;;5065661;28;20090;-55
2022/05/05 09:12:41;;;;;;;27.45;22.50;;;21.90;99.30;;;;;;5061519;28;20442;-55
2022/05/05 09:15:10;;;;;;;24.05;20.92;;;21.30;99.90;;;;;;5059293;28;20108;-55
2022/05/05 09:17:36;;;;;;;25.38;21.90;;;21.20;99.90;;;;;;5058063;28;20136;-55
2022/05/05 09:20:03;;;;;;;28.75;23.33;;;20.60;99.90;;;;;;5060769;28;20215;-55
2022/05/05 09:22:29;;;;;;;31.20;24.02;;;19.90;99.90;;;;;;5062153;28;20438;-55
2022/05/05 09:24:57;;;;;;;32.70;23.40;;;19.60;99.90;;;;;;5059071;28;20091;-55
2022/05/05 09:27:28;;;;;;;27.27;22.35;;;19.00;99.90;;;;;;5059474;28;20017;-55
2022/05/05 09:29:59;;;;;;;28.75;22.27;;;18.90;99.90;;;;;;5063073;28;20036;-55
2022/05/05 09:32:29;;;;;;;27.38;22.55;;;18.90;99.90;;;;;;5068844;28;20394;-55
2022/05/05 09:34:59;;;;;;;29.40;22.08;;;19.10;99.90;;;;;;5065450;28;20044;-55
2022/05/05 09:37:25;;;;;;;25.08;22.25;;;19.10;99.90;;;;;;5062338;28;20115;-55
2022/05/05 09:39:55;;;;;;;27.52;22.10;;;19.10;99.90;;;;;;5057841;28;20473;-55
2022/05/05 09:42:37;;;;;;;29.27;22.73;;;19.30;99.90;;;;;;5064789;28;20541;-55
2022/05/05 09:45:21;;;;;;;28.50;21.98;;;18.80;99.90;;;;;;5056032;28;20495;-55
2022/05/05 09:47:56;;;;;;;25.50;20.80;;;18.60;99.90;;;;;;5057970;28;20029;-55
2022/05/05 09:50:24;;;;;;;27.35;20.65;;;18.70;99.90;;;;;;5060528;28;20051;-55
2022/05/05 09:58:23;;;;;;;27.08;22.83;;;17.90;99.90;;;;;;5054523;28;20032;-54
2022/05/05 10:01:00;;;;;;;30.52;24.02;;;17.50;99.90;;;;;;5058835;28;20055;-54
2022/05/05 10:06:23;;;;;;;30.73;22.92;;;17.90;99.90;;;;;;5062928;28;20394;-55
2022/05/05 10:08:51;;;;;;;30.92;22.77;;;18.00;99.90;;;;;;5058698;28;20066;-54
2022/05/05 10:11:19;;;;;;;28.48;21.98;;;17.50;99.90;;;;;;5060304;28;20519;-55
2022/05/05 10:13:45;;;;;;;30.98;23.92;;;17.30;99.90;;;;;;5064783;28;20037;-54
2022/05/05 10:16:14;;;;;;;33.15;25.35;;;17.20;99.90;;;;;;5059670;28;20057;-55
2022/05/05 10:18:41;;;;;;;39.20;28.10;;;17.10;99.90;;;;;;5058674;28;20108;-55
2022/05/05 10:21:28;;;;;;;41.20;29.05;;;17.10;99.90;;;;;;5058554;28;20670;-54
2022/05/05 10:24:10;;;;;;;42.92;29.40;;;17.10;99.90;;;;;;5054639;28;20109;-55
2022/05/05 10:26:37;;;;;;;45.08;28.50;;;17.40;99.90;;;;;;5061341;28;20036;-55
2022/05/05 10:29:03;;;;;;;36.80;25.13;;;17.70;99.90;;;;;;5057575;28;20044;-55
2022/05/05 10:31:33;;;;;;;36.38;25.15;;;17.70;99.90;;;;;;5058696;28;20036;-55
2022/05/05 10:34:02;;;;;;;31.52;23.17;;;18.00;99.90;;;;;;5057681;28;20068;-55
2022/05/05 10:36:29;;;;;;;32.22;22.15;;;18.60;99.90;;;;;;5062115;28;20037;-55
2022/05/05 10:38:55;;;;;;;29.27;22.13;;;18.90;99.90;;;;;;5059351;28;20028;-55
2022/05/05 10:41:31;;;;;;;26.98;19.13;;;18.80;99.90;;;;;;5060118;28;20054;-55
2022/05/05 10:44:15;;;;;;;23.48;18.35;;;18.90;99.90;;;;;;5061959;28;20028;-55
2022/05/05 10:47:01;;;;;;;27.92;18.40;;;19.20;99.90;;;;;;5061933;28;20059;-55
2022/05/05 10:49:33;;;;;;;26.58;15.00;;;19.20;99.90;;;;;;5056976;28;20517;-55
2022/05/05 10:52:13;;;;;;;22.67;17.85;;;18.60;99.90;;;;;;5058296;28;20033;-55
2022/05/05 10:54:41;;;;;;;27.80;19.33;;;18.90;99.90;;;;;;5063842;28;20513;-60
2022/05/05 10:57:25;;;;;;;29.40;20.52;;;19.50;99.90;;;;;;5064613;28;20033;-61
2022/05/05 11:00:15;;;;;;;35.50;23.52;;;19.70;99.90;;;;;;5058695;28;20056;-56
2022/05/05 11:03:00;;;;;;;30.35;21.38;;;20.10;99.90;;;;;;5063688;28;20020;-56
2022/05/05 11:05:28;;;;;;;34.47;23.83;;;20.50;99.90;;;;;;5057419;28;20091;-58
2022/05/05 11:08:20;;;;;;;27.65;21.50;;;21.00;99.90;;;;;;5055130;28;20078;-58
2022/05/05 11:13:46;;;;;;;25.73;19.30;;;20.60;99.90;;;;;;5055673;28;20043;-56
2022/05/05 11:22:27;;;;;;;23.95;20.27;;;19.70;99.90;;;;;;5060942;28;20086;-57
2022/05/05 11:24:53;;;;;;;31.25;22.27;;;19.90;99.90;;;;;;5060165;28;20044;-56
2022/05/05 11:27:23;;;;;;;27.20;23.10;;;20.30;99.90;;;;;;5063166;28;20045;-57
2022/05/05 11:29:54;;;;;;;33.70;26.92;;;20.80;99.90;;;;;;5061815;28;21792;-57
2022/05/05 11:32:21;;;;;;;26.25;20.15;;;21.20;99.90;;;;;;5063837;28;20038;-57
2022/05/05 11:34:48;;;;;;;36.70;29.05;;;20.70;99.80;;;;;;5062358;28;20040;-56
2022/05/05 11:37:14;;;;;;;42.10;31.70;;;20.20;99.90;;;;;;5060409;28;20051;-56
2022/05/05 11:39:40;;;;;;;42.60;31.83;;;20.30;99.90;;;;;;5063570;28;20040;-56
2022/05/05 11:42:11;;;;;;;40.05;32.03;;;20.70;99.90;;;;;;5063826;28;20481;-57
2022/05/05 11:44:41;;;;;;;41.97;31.13;;;21.20;99.90;;;;;;5060741;28;20081;-57
2022/05/05 11:47:14;;;;;;;42.13;31.40;;;21.70;99.90;;;;;;5064571;28;20394;-57
2022/05/05 11:49:46;;;;;;;38.85;29.55;;;20.90;99.90;;;;;;5067458;28;20234;-57
2022/05/05 11:52:16;;;;;;;35.90;28.67;;;20.40;99.90;;;;;;5066776;28;20032;-57
2022/05/05 11:54:47;;;;;;;35.80;26.73;;;20.70;99.90;;;;;;5068075;28;20020;-57
2022/05/05 11:57:29;;;;;;;35.10;25.40;;;21.10;99.90;;;;;;5069704;28;20409;-57
2022/05/05 12:02:39;;;;;;;38.42;23.50;;;22.00;98.50;;;;;;5064973;28;20036;-57
2022/05/05 12:05:08;;;;;;;30.88;21.25;;;22.40;98.10;;;;;;5065475;28;20025;-57
2022/05/05 12:07:34;;;;;;;27.13;21.77;;;22.50;97.00;;;;;;5067865;28;20370;-57
2022/05/05 12:10:05;;;;;;;28.88;21.88;;;22.80;96.60;;;;;;5065161;28;20025;-57
2022/05/05 12:12:31;;;;;;;27.80;19.65;;;23.20;96.00;;;;;;5061527;28;20465;-57
2022/05/05 12:15:00;;;;;;;23.52;19.02;;;23.10;94.80;;;;;;5059785;28;20028;-57
2022/05/05 12:17:34;;;;;;;20.92;16.98;;;22.30;95.60;;;;;;5060507;28;20033;-56
2022/05/05 12:20:03;;;;;;;24.00;18.42;;;21.60;96.70;;;;;;5060399;28;20028;-57
2022/05/05 12:22:31;;;;;;;22.08;17.80;;;21.00;98.00;;;;;;5063254;28;20485;-57
2022/05/05 12:25:13;;;;;;;24.52;19.30;;;21.30;97.70;;;;;;5065765;28;20496;-57
2022/05/05 12:27:39;;;;;;;24.38;18.77;;;21.70;97.20;;;;;;5062475;28;20036;-56
2022/05/05 12:30:06;;;;;;;23.60;19.00;;;21.60;96.80;;;;;;5063044;28;20052;-57
2022/05/05 12:32:32;;;;;;;23.20;18.13;;;21.40;97.30;;;;;;5064300;28;20445;-56
2022/05/05 12:35:07;;;;;;;22.02;17.10;;;22.70;96.10;;;;;;5058085;28;20123;-57
2022/05/05 12:37:33;;;;;;;20.17;16.42;;;24.30;93.80;;;;;;5062103;28;20115;-57
2022/05/05 12:40:06;;;;;;;22.67;18.10;;;24.80;92.40;;;;;;5063825;28;20020;-57
2022/05/05 12:42:39;;;;;;;24.70;19.05;;;23.80;92.80;;;;;;5062995;28;21124;-57
2022/05/05 12:45:08;;;;;;;25.80;19.75;;;22.80;93.80;;;;;;5063526;28;20025;-57
2022/05/05 12:47:39;;;;;;;23.85;19.60;;;22.20;94.60;;;;;;5064416;28;20021;-56
2022/05/05 12:50:05;;;;;;;25.67;19.90;;;21.70;95.40;;;;;;5061362;28;20549;-57
2022/05/05 13:00:53;;;;;;;20.83;16.02;;;20.80;96.40;;;;;;5060893;28;20040;-56
2022/05/05 13:03:21;;;;;;;28.98;15.38;;;20.50;96.20;;;;;;5064799;28;20029;-56
2022/05/05 13:05:47;;;;;;;32.60;15.27;;;20.50;96.40;;;;;;5059505;28;20082;-56
2022/05/05 13:08:13;;;;;;;23.55;15.68;;;20.80;95.80;;;;;;5064491;28;20033;-56
2022/05/05 13:10:39;;;;;;;20.88;15.60;;;20.90;95.60;;;;;;5061048;28;20089;-56
2022/05/05 13:13:05;;;;;;;22.75;16.20;;;21.40;94.60;;;;;;5064966;28;20036;-56
2022/05/05 13:15:31;;;;;;;31.73;15.30;;;21.60;94.30;;;;;;5065852;28;20036;-56
2022/05/05 13:17:56;;;;;;;20.00;15.82;;;22.00;94.80;;;;;;5060226;28;20071;-56
2022/05/05 13:20:22;;;;;;;18.27;14.65;;;22.20;94.10;;;;;;5060197;28;20033;-56
2022/05/05 13:22:48;;;;;;;20.05;14.13;;;22.50;93.60;;;;;;5061767;28;20032;-57